createdAt,value
2023-04-20T00:00:25.547Z,81.68
2023-04-20T00:03:18.466Z,81.49
2023-04-20T00:05:49.334Z,81.02
2023-04-20T00:08:18.538Z,81.21
2023-04-20T00:10:47.759Z,80.89
2023-04-20T00:13:16.825Z,81.61
2023-04-20T00:15:45.757Z,81.32
2023-04-20T00:18:16.150Z,81.05
2023-04-20T00:20:44.862Z,81.79
2023-04-20T00:23:13.806Z,81.35
2023-04-20T00:25:42.390Z,81.85
2023-04-20T00:28:11.669Z,81.55
2023-04-20T00:30:42.714Z,82.21
2023-04-20T00:33:12.196Z,82.18
2023-04-20T00:35:42.194Z,82.36
2023-04-20T00:38:11.155Z,82.01
2023-04-20T00:40:39.867Z,81.83
2023-04-20T00:43:12.893Z,81.87
2023-04-20T00:45:42.304Z,81.77
2023-04-20T00:48:12.436Z,81.33
2023-04-20T00:50:43.204Z,81.30
2023-04-20T00:53:14.001Z,81.27
2023-04-20T00:55:45.715Z,81.00
2023-04-20T00:58:15.848Z,80.84
2023-04-20T01:00:44.661Z,80.46
2023-04-20T01:03:14.746Z,80.43
2023-04-20T01:05:45.034Z,80.70
2023-04-20T01:08:13.924Z,80.48
2023-04-20T01:10:42.546Z,80.57
2023-04-20T01:13:11.499Z,80.97
2023-04-20T01:15:40.324Z,80.73
2023-04-20T01:18:11.803Z,80.70
2023-04-20T01:20:40.770Z,80.83
2023-04-20T01:23:11.043Z,81.14
2023-04-20T01:25:39.910Z,81.21
2023-04-20T01:28:09.455Z,80.78
2023-04-20T01:30:39.348Z,80.64
2023-04-20T01:33:08.386Z,81.09
2023-04-20T01:35:37.073Z,81.11
2023-04-20T01:38:06.131Z,80.35
2023-04-20T01:40:36.454Z,80.72
2023-04-20T01:43:05.471Z,81.00
2023-04-20T01:45:34.237Z,80.70
2023-04-20T01:48:03.670Z,80.58
2023-04-20T01:50:32.402Z,81.03
2023-04-20T01:53:01.374Z,80.88
2023-04-20T01:55:30.058Z,80.13
2023-04-20T01:58:00.499Z,79.98
2023-04-20T02:00:29.148Z,79.96
2023-04-20T02:02:58.158Z,80.09
2023-04-20T02:05:27.356Z,79.38
2023-04-20T02:07:59.685Z,79.78
2023-04-20T02:10:28.379Z,80.08
2023-04-20T02:12:57.522Z,80.32
2023-04-20T02:15:27.885Z,79.98
2023-04-20T02:17:57.433Z,79.97
2023-04-20T02:20:26.402Z,80.40
2023-04-20T02:22:55.458Z,80.73
2023-04-20T02:25:24.528Z,79.84
2023-04-20T02:27:53.641Z,79.23
2023-04-20T02:30:22.532Z,79.11
2023-04-20T02:32:52.963Z,79.51
2023-04-20T02:35:21.661Z,80.41
2023-04-20T02:37:51.373Z,80.02
2023-04-20T02:40:20.143Z,79.81
2023-04-20T02:42:49.367Z,80.37
2023-04-20T02:45:19.049Z,79.85
2023-04-20T02:47:49.360Z,80.30
2023-04-20T02:50:20.894Z,80.49
2023-04-20T02:53:06.749Z,80.47
2023-04-20T02:55:38.135Z,80.08
2023-04-20T02:58:17.707Z,80.37
2023-04-20T03:01:11.816Z,79.86
2023-04-20T03:03:41.944Z,79.56
2023-04-20T03:06:15.004Z,80.13
2023-04-20T03:08:49.172Z,80.40
2023-04-20T03:11:36.060Z,80.56
2023-04-20T03:14:06.351Z,79.75
2023-04-20T03:16:36.062Z,79.88
2023-04-20T03:19:06.563Z,79.43
2023-04-20T03:21:37.340Z,79.97
2023-04-20T03:24:07.339Z,79.83
2023-04-20T03:26:36.471Z,79.39
2023-04-20T03:29:15.068Z,79.42
2023-04-20T03:31:43.915Z,79.07
2023-04-20T03:34:13.833Z,79.36
2023-04-20T03:36:44.526Z,79.87
2023-04-20T03:39:13.440Z,81.06
2023-04-20T03:41:42.307Z,81.29
2023-04-20T03:44:11.350Z,80.32
2023-04-20T03:46:40.050Z,81.43
2023-04-20T03:49:08.956Z,81.05
2023-04-20T03:51:37.665Z,81.01
2023-04-20T03:54:09.561Z,80.94
2023-04-20T03:56:38.723Z,80.79
2023-04-20T03:59:07.694Z,80.59
2023-04-20T04:01:38.692Z,81.05
2023-04-20T04:04:07.990Z,80.63
2023-04-20T04:06:37.235Z,80.49
2023-04-20T04:09:06.366Z,80.48
2023-04-20T04:11:36.542Z,81.72
2023-04-20T04:14:06.117Z,81.43
2023-04-20T04:16:37.692Z,81.48
2023-04-20T04:19:06.744Z,81.54
2023-04-20T04:21:35.987Z,81.16
2023-04-20T04:24:07.613Z,80.47
2023-04-20T04:26:59.123Z,80.70
2023-04-20T04:29:29.964Z,80.57
2023-04-20T04:32:05.287Z,80.87
2023-04-20T04:34:34.806Z,80.52
2023-04-20T04:37:04.473Z,79.69
2023-04-20T04:39:47.780Z,80.25
2023-04-20T04:42:30.213Z,80.81
2023-04-20T04:45:02.458Z,80.70
2023-04-20T04:47:36.885Z,80.03
2023-04-20T04:50:07.637Z,79.37
2023-04-20T04:52:36.542Z,79.08
2023-04-20T04:55:08.502Z,79.55
2023-04-20T04:57:39.322Z,79.39
2023-04-20T05:00:12.044Z,78.71
2023-04-20T05:02:41.377Z,77.71
2023-04-20T05:05:10.942Z,76.74
2023-04-20T05:07:40.221Z,76.29
2023-04-20T05:10:10.030Z,76.21
2023-04-20T05:12:40.776Z,75.83
2023-04-20T05:15:11.159Z,75.50
2023-04-20T05:17:39.892Z,75.27
2023-04-20T05:20:10.777Z,74.44
2023-04-20T05:22:39.724Z,74.41
2023-04-20T05:25:11.565Z,73.41
2023-04-20T05:27:42.682Z,73.39
2023-04-20T05:30:20.577Z,73.20
2023-04-20T05:32:52.546Z,73.19
2023-04-20T05:35:22.463Z,73.29
2023-04-20T05:37:51.754Z,72.43
2023-04-20T05:40:20.832Z,72.82
2023-04-20T05:42:50.954Z,72.35
2023-04-20T05:45:20.129Z,71.97
2023-04-20T05:47:55.255Z,70.74
2023-04-20T05:50:25.252Z,71.09
2023-04-20T05:52:54.910Z,70.26
2023-04-20T05:55:24.423Z,69.17
2023-04-20T05:57:54.626Z,68.72
2023-04-20T06:00:25.974Z,67.39
2023-04-20T06:02:55.584Z,67.46
2023-04-20T06:05:24.839Z,67.06
2023-04-20T06:07:53.492Z,65.63
2023-04-20T06:10:22.637Z,64.63
2023-04-20T06:12:51.483Z,64.59
2023-04-20T06:15:22.036Z,64.26
2023-04-20T06:17:50.798Z,64.66
2023-04-20T06:20:20.502Z,64.23
2023-04-20T06:22:49.604Z,64.45
2023-04-20T06:25:18.602Z,63.02
2023-04-20T06:27:48.421Z,61.90
2023-04-20T06:30:18.198Z,61.64
2023-04-20T06:32:48.380Z,61.07
2023-04-20T06:35:17.770Z,59.79
2023-04-20T06:37:46.509Z,60.56
2023-04-20T06:40:16.358Z,60.16
2023-04-20T06:42:45.294Z,59.23
2023-04-20T06:45:14.293Z,57.90
2023-04-20T06:47:43.005Z,57.75
2023-04-20T06:50:13.666Z,55.42
2023-04-20T06:52:43.071Z,54.89
2023-04-20T06:55:13.377Z,55.46
2023-04-20T06:57:43.876Z,53.67
2023-04-20T07:00:14.643Z,53.27
2023-04-20T07:02:48.565Z,51.04
2023-04-20T07:05:19.949Z,51.52
2023-04-20T07:07:48.679Z,51.00
2023-04-20T07:10:18.040Z,50.21
2023-04-20T07:12:46.887Z,49.53
2023-04-20T07:15:16.274Z,49.51
2023-04-20T07:17:45.031Z,49.46
2023-04-20T07:20:14.071Z,50.20
2023-04-20T07:22:44.108Z,49.73
2023-04-20T07:25:13.061Z,48.87
2023-04-20T07:27:42.633Z,48.49
2023-04-20T07:30:13.311Z,48.76
2023-04-20T07:32:42.660Z,47.51
2023-04-20T07:35:12.504Z,47.86
2023-04-20T07:37:41.299Z,48.15
2023-04-20T07:40:12.774Z,46.70
2023-04-20T07:42:41.633Z,46.38
2023-04-20T07:45:13.643Z,47.58
2023-04-20T07:47:44.120Z,47.21
2023-04-20T07:50:13.039Z,46.77
2023-04-20T07:52:41.849Z,46.51
2023-04-20T07:55:14.142Z,47.08
2023-04-20T07:57:43.082Z,45.92
2023-04-20T08:00:14.211Z,45.39
2023-04-20T08:02:43.036Z,45.41
2023-04-20T08:05:12.469Z,44.73
2023-04-20T08:07:41.502Z,44.26
2023-04-20T08:10:12.592Z,44.84
2023-04-20T08:12:41.666Z,44.33
2023-04-20T08:15:12.295Z,44.28
2023-04-20T08:17:41.014Z,42.97
2023-04-20T08:20:11.227Z,43.28
2023-04-20T08:22:40.656Z,42.07
2023-04-20T08:25:11.463Z,42.94
2023-04-20T08:27:40.176Z,42.84
2023-04-20T08:30:10.617Z,42.19
2023-04-20T08:32:41.117Z,42.07
2023-04-20T08:35:10.502Z,40.56
2023-04-20T08:37:39.389Z,41.39
2023-04-20T08:40:11.739Z,42.52
2023-04-20T08:42:40.425Z,39.94
2023-04-20T08:45:10.304Z,39.63
2023-04-20T08:47:40.143Z,38.62
2023-04-20T08:50:11.028Z,38.60
2023-04-20T08:52:39.902Z,36.81
2023-04-20T08:55:11.532Z,37.96
2023-04-20T08:57:40.316Z,37.94
2023-04-20T09:00:13.549Z,39.43
2023-04-20T09:02:51.694Z,37.15
2023-04-20T09:05:29.136Z,37.97
2023-04-20T09:08:01.184Z,36.52
2023-04-20T09:10:43.630Z,37.28
2023-04-20T09:13:23.169Z,37.22
2023-04-20T09:15:52.430Z,37.61
2023-04-20T09:18:21.399Z,37.14
2023-04-20T09:20:50.884Z,37.16
2023-04-20T09:23:22.268Z,35.50
2023-04-20T09:25:53.870Z,35.36
2023-04-20T09:28:22.653Z,34.91
2023-04-20T09:30:51.988Z,33.93
2023-04-20T09:33:20.717Z,32.57
2023-04-20T09:35:49.881Z,31.66
2023-04-20T09:38:18.847Z,33.03
2023-04-20T09:40:47.950Z,29.88
2023-04-20T09:43:25.515Z,29.91
2023-04-20T09:45:56.819Z,29.67
2023-04-20T09:48:26.270Z,28.30
2023-04-20T09:50:56.673Z,28.75
2023-04-20T09:53:27.057Z,28.80
2023-04-20T09:55:56.529Z,27.77
2023-04-20T09:58:27.447Z,27.83
2023-04-20T10:00:56.689Z,28.52
2023-04-20T10:03:26.157Z,29.67
2023-04-20T10:05:55.692Z,30.42
2023-04-20T10:08:25.354Z,30.19
2023-04-20T10:10:54.517Z,27.96
2023-04-20T10:13:35.749Z,28.00
2023-04-20T10:16:04.822Z,28.79
2023-04-20T10:18:33.562Z,28.85
2023-04-20T10:21:09.585Z,28.46
2023-04-20T10:23:49.808Z,27.02
2023-04-20T10:26:19.098Z,28.14
2023-04-20T10:28:49.529Z,28.94
2023-04-20T10:31:20.582Z,28.72
2023-04-20T10:33:54.295Z,29.94
2023-04-20T10:36:32.363Z,28.92
2023-04-20T10:39:05.113Z,27.70
2023-04-20T10:41:34.032Z,27.85
2023-04-20T10:44:10.773Z,27.72
2023-04-20T10:46:39.811Z,27.89
2023-04-20T10:49:09.156Z,27.69
2023-04-20T10:51:38.183Z,27.55
2023-04-20T10:54:09.432Z,25.84
2023-04-20T10:56:44.315Z,26.32
2023-04-20T10:59:17.652Z,26.13
2023-04-20T11:01:48.095Z,25.99
2023-04-20T11:04:18.794Z,25.86
2023-04-20T11:06:49.149Z,26.02
2023-04-20T11:09:20.441Z,25.65
2023-04-20T11:12:02.001Z,24.80
2023-04-20T11:14:33.661Z,24.70
2023-04-20T11:17:03.177Z,25.54
2023-04-20T11:19:34.305Z,25.31
2023-04-20T11:22:06.406Z,25.35
2023-04-20T11:24:37.493Z,24.33
2023-04-20T11:27:06.580Z,25.16
2023-04-20T11:29:39.084Z,23.86
2023-04-20T11:32:11.365Z,23.71
2023-04-20T11:34:41.190Z,23.85
2023-04-20T11:37:13.840Z,24.22
2023-04-20T11:39:43.080Z,24.98
2023-04-20T11:42:12.097Z,25.42
2023-04-20T11:44:42.152Z,24.73
2023-04-20T11:47:11.226Z,24.20
2023-04-20T11:49:39.951Z,23.52
2023-04-20T11:52:09.126Z,23.99
2023-04-20T11:54:37.805Z,23.16
2023-04-20T11:57:07.254Z,24.16
2023-04-20T11:59:36.109Z,24.31
2023-04-20T12:02:06.526Z,23.78
2023-04-20T12:04:35.476Z,24.90
2023-04-20T12:07:04.768Z,24.85
2023-04-20T12:09:37.223Z,26.06
2023-04-20T12:12:07.250Z,26.87
2023-04-20T12:14:36.573Z,26.16
2023-04-20T12:17:07.098Z,26.65
2023-04-20T12:19:35.789Z,28.65
2023-04-20T12:22:04.811Z,27.43
2023-04-20T12:24:33.530Z,28.26
2023-04-20T12:27:03.880Z,27.00
2023-04-20T12:29:33.203Z,25.82
2023-04-20T12:32:02.354Z,26.17
2023-04-20T12:34:32.424Z,27.24
2023-04-20T12:37:01.683Z,27.48
2023-04-20T12:39:30.389Z,26.40
2023-04-20T12:41:59.310Z,27.49
2023-04-20T12:44:28.023Z,28.58
2023-04-20T12:46:57.210Z,27.74
2023-04-20T12:49:26.044Z,28.65
2023-04-20T12:51:56.363Z,29.83
2023-04-20T12:54:25.155Z,28.78
2023-04-20T12:56:54.042Z,29.17
2023-04-20T12:59:22.850Z,29.78
2023-04-20T13:01:51.988Z,28.76
2023-04-20T13:04:21.008Z,30.14
2023-04-20T13:06:50.315Z,30.47
2023-04-20T13:09:20.918Z,30.84
2023-04-20T13:11:49.954Z,29.24
2023-04-20T13:14:18.746Z,28.40
2023-04-20T13:16:47.918Z,28.23
2023-04-20T13:19:16.826Z,27.86
2023-04-20T13:21:45.832Z,26.82
2023-04-20T13:24:14.570Z,26.71
2023-04-20T13:26:44.932Z,25.77
2023-04-20T13:29:14.736Z,26.17
2023-04-20T13:31:44.494Z,25.77
2023-04-20T13:34:13.303Z,25.84
2023-04-20T13:36:42.363Z,25.60
2023-04-20T13:39:12.218Z,25.14
2023-04-20T13:41:41.299Z,25.24
2023-04-20T13:44:16.037Z,24.90
2023-04-20T13:46:47.009Z,25.25
2023-04-20T13:49:16.906Z,26.03
2023-04-20T13:51:45.892Z,26.84
2023-04-20T13:54:14.492Z,25.97
2023-04-20T13:56:43.502Z,26.52
2023-04-20T13:59:13.980Z,27.58
2023-04-20T14:01:43.147Z,27.06
2023-04-20T14:04:12.009Z,26.74
2023-04-20T14:06:41.032Z,26.57
2023-04-20T14:09:09.928Z,26.75
2023-04-20T14:11:39.122Z,24.35
2023-04-20T14:14:07.985Z,25.01
2023-04-20T14:16:46.712Z,25.03
2023-04-20T14:19:16.346Z,25.79
2023-04-20T14:21:46.743Z,25.00
2023-04-20T14:24:15.966Z,24.81
2023-04-20T14:26:45.160Z,26.27
2023-04-20T14:29:13.863Z,26.59
2023-04-20T14:31:44.344Z,27.81
2023-04-20T14:34:14.256Z,26.46
2023-04-20T14:36:43.254Z,27.77
2023-04-20T14:39:12.008Z,26.66
2023-04-20T14:41:40.963Z,27.39
2023-04-20T14:44:09.727Z,26.93
2023-04-20T14:46:42.257Z,27.61
2023-04-20T14:49:13.017Z,26.70
2023-04-20T14:51:42.278Z,27.00
2023-04-20T14:54:11.052Z,26.96
2023-04-20T14:56:39.969Z,26.42
2023-04-20T14:59:08.760Z,27.18
2023-04-20T15:01:39.997Z,26.85
2023-04-20T15:04:13.652Z,27.09
2023-04-20T15:06:42.900Z,27.05
2023-04-20T15:09:11.759Z,27.54
2023-04-20T15:11:40.879Z,26.97
2023-04-20T15:14:09.682Z,27.53
2023-04-20T15:16:39.035Z,27.72
2023-04-20T15:19:07.808Z,27.53
2023-04-20T15:21:38.087Z,28.29
2023-04-20T15:24:07.946Z,28.53
2023-04-20T15:26:36.968Z,28.62
2023-04-20T15:29:05.782Z,28.46
2023-04-20T15:31:35.031Z,28.44
2023-04-20T15:34:03.863Z,27.87
2023-04-20T15:36:33.170Z,28.08
2023-04-20T15:39:03.867Z,27.10
2023-04-20T15:41:33.022Z,27.92
2023-04-20T15:44:01.746Z,28.31
2023-04-20T15:46:31.036Z,27.90
2023-04-20T15:48:59.850Z,28.57
2023-04-20T15:51:28.854Z,28.18
2023-04-20T15:53:58.214Z,27.41
2023-04-20T15:56:28.557Z,26.54
2023-04-20T15:58:57.236Z,27.16
2023-04-20T16:01:26.229Z,27.74
2023-04-20T16:03:55.239Z,27.63
2023-04-20T16:06:24.415Z,27.14
2023-04-20T16:08:54.112Z,27.71
2023-04-20T16:11:23.499Z,28.82
2023-04-20T16:13:53.969Z,29.69
2023-04-20T16:16:23.063Z,29.43
2023-04-20T16:18:52.225Z,27.95
2023-04-20T16:21:22.272Z,27.00
2023-04-20T16:23:54.205Z,27.41
2023-04-20T16:26:24.224Z,27.07
2023-04-20T16:28:54.462Z,26.95
2023-04-20T16:31:23.488Z,26.98
2023-04-20T16:33:52.153Z,28.10
2023-04-20T16:36:21.261Z,27.83
2023-04-20T16:38:49.919Z,27.97
2023-04-20T16:41:18.891Z,28.30
2023-04-20T16:43:47.654Z,28.75
2023-04-20T16:46:22.129Z,29.48
2023-04-20T16:48:52.017Z,29.82
2023-04-20T16:51:21.077Z,29.56
2023-04-20T16:53:50.334Z,29.84
2023-04-20T16:56:19.358Z,30.16
2023-04-20T16:58:48.086Z,30.94
2023-04-20T17:01:18.543Z,30.82
2023-04-20T17:03:47.927Z,31.57
2023-04-20T17:06:16.947Z,31.07
2023-04-20T17:08:45.626Z,32.60
2023-04-20T17:11:15.923Z,32.61
2023-04-20T17:13:44.684Z,33.34
2023-04-20T17:16:13.720Z,33.84
2023-04-20T17:18:43.739Z,34.48
2023-04-20T17:21:12.827Z,34.22
2023-04-20T17:23:42.008Z,34.82
2023-04-20T17:26:11.089Z,35.08
2023-04-20T17:28:39.840Z,34.52
2023-04-20T17:31:08.786Z,34.18
2023-04-20T17:33:37.670Z,35.39
2023-04-20T17:36:08.550Z,35.16
2023-04-20T17:38:38.521Z,35.38
2023-04-20T17:41:07.533Z,35.91
2023-04-20T17:43:40.302Z,36.28
2023-04-20T17:46:09.312Z,36.84
2023-04-20T17:48:38.142Z,37.83
2023-04-20T17:51:08.616Z,36.71
2023-04-20T17:53:37.238Z,38.05
2023-04-20T17:56:06.794Z,36.29
2023-04-20T17:58:35.498Z,37.42
2023-04-20T18:01:04.851Z,36.91
2023-04-20T18:03:34.007Z,36.72
2023-04-20T18:06:03.370Z,36.57
2023-04-20T18:08:34.540Z,36.88
2023-04-20T18:11:05.624Z,37.03
2023-04-20T18:13:34.279Z,37.31
2023-04-20T18:16:07.132Z,37.18
2023-04-20T18:18:36.245Z,36.63
2023-04-20T18:21:05.454Z,36.94
2023-04-20T18:23:35.668Z,38.68
2023-04-20T18:26:04.864Z,38.65
2023-04-20T18:28:33.586Z,39.59
2023-04-20T18:31:02.661Z,37.84
2023-04-20T18:33:31.475Z,39.79
2023-04-20T18:36:00.514Z,40.68
2023-04-20T18:38:29.141Z,40.37
2023-04-20T18:40:59.873Z,40.75
2023-04-20T18:43:28.670Z,40.14
2023-04-20T18:45:57.697Z,40.07
2023-04-20T18:48:26.474Z,40.81
2023-04-20T18:50:55.484Z,40.23
2023-04-20T18:53:24.229Z,40.10
2023-04-20T18:55:53.666Z,40.57
2023-04-20T18:58:23.775Z,41.05
2023-04-20T19:00:52.812Z,40.60
2023-04-20T19:03:21.756Z,39.39
2023-04-20T19:05:50.904Z,40.82
2023-04-20T19:08:19.977Z,40.72
2023-04-20T19:10:49.313Z,39.07
2023-04-20T19:13:18.010Z,39.93
2023-04-20T19:15:48.390Z,39.68
2023-04-20T19:18:17.303Z,40.56
2023-04-20T19:20:46.382Z,40.67
2023-04-20T19:23:15.089Z,41.52
2023-04-20T19:25:44.027Z,41.11
2023-04-20T19:28:13.080Z,42.51
2023-04-20T19:30:42.581Z,42.52
2023-04-20T19:33:12.737Z,43.77
2023-04-20T19:35:42.269Z,44.35
2023-04-20T19:38:10.948Z,43.81
2023-04-20T19:40:39.976Z,45.13
2023-04-20T19:43:08.642Z,45.01
2023-04-20T19:45:37.657Z,44.85
2023-04-20T19:48:06.898Z,44.57
2023-04-20T19:50:37.295Z,46.01
2023-04-20T19:53:06.374Z,46.19
2023-04-20T19:55:35.435Z,47.15
2023-04-20T19:58:09.092Z,45.85
2023-04-20T20:00:38.873Z,44.95
2023-04-20T20:03:08.522Z,44.99
2023-04-20T20:05:39.081Z,44.49
2023-04-20T20:08:07.821Z,45.10
2023-04-20T20:10:36.822Z,44.65
2023-04-20T20:13:05.800Z,46.14
2023-04-20T20:15:34.860Z,45.41
2023-04-20T20:18:03.749Z,43.70
2023-04-20T20:20:33.053Z,44.60
2023-04-20T20:23:03.171Z,43.68
2023-04-20T20:25:34.619Z,43.61
2023-04-20T20:28:04.084Z,43.88
2023-04-20T20:30:33.329Z,43.72
2023-04-20T20:33:02.043Z,43.71
2023-04-20T20:35:33.479Z,44.25
2023-04-20T20:38:06.312Z,43.25
2023-04-20T20:40:36.136Z,43.72
2023-04-20T20:43:05.351Z,43.78
2023-04-20T20:45:34.594Z,44.06
2023-04-20T20:48:03.359Z,44.06
2023-04-20T20:50:32.314Z,44.25
2023-04-20T20:53:01.026Z,45.22
2023-04-20T20:55:31.467Z,44.75
2023-04-20T20:58:00.130Z,44.47
2023-04-20T21:00:29.139Z,44.53
2023-04-20T21:02:58.947Z,44.64
2023-04-20T21:05:28.095Z,43.90
2023-04-20T21:07:56.837Z,44.32
2023-04-20T21:10:25.996Z,43.83
2023-04-20T21:12:56.116Z,44.23
2023-04-20T21:15:25.273Z,44.25
2023-04-20T21:17:54.029Z,43.82
2023-04-20T21:20:23.316Z,44.23
2023-04-20T21:22:52.090Z,43.82
2023-04-20T21:25:21.315Z,43.93
2023-04-20T21:27:49.980Z,44.58
2023-04-20T21:30:20.541Z,44.35
2023-04-20T21:32:49.202Z,44.42
2023-04-20T21:35:18.299Z,44.60
2023-04-20T21:37:47.013Z,44.69
2023-04-20T21:40:16.196Z,44.49
2023-04-20T21:42:44.888Z,45.16
2023-04-20T21:45:14.021Z,45.05
2023-04-20T21:47:44.239Z,44.95
2023-04-20T21:50:13.321Z,44.62
2023-04-20T21:52:41.993Z,45.20
2023-04-20T21:55:11.571Z,45.67
2023-04-20T21:57:40.280Z,45.65
2023-04-20T22:00:11.364Z,45.64
2023-04-20T22:02:50.215Z,46.07
2023-04-20T22:05:19.804Z,45.70
2023-04-20T22:07:48.521Z,45.93
2023-04-20T22:10:17.608Z,45.94
2023-04-20T22:12:46.483Z,46.08
2023-04-20T22:15:16.803Z,45.83
2023-04-20T22:17:47.694Z,46.90
2023-04-20T22:20:19.342Z,46.45
2023-04-20T22:22:48.277Z,45.71
2023-04-20T22:25:17.253Z,45.95
2023-04-20T22:27:46.689Z,46.13
2023-04-20T22:30:16.277Z,46.06
2023-04-20T22:32:45.061Z,47.01
2023-04-20T22:35:15.515Z,46.44
2023-04-20T22:37:44.167Z,47.07
2023-04-20T22:40:14.229Z,46.97
2023-04-20T22:42:43.090Z,47.15
2023-04-20T22:45:12.881Z,47.22
2023-04-20T22:47:42.547Z,47.62
2023-04-20T22:50:12.851Z,47.71
2023-04-20T22:52:42.868Z,47.27
2023-04-20T22:55:12.514Z,47.81
2023-04-20T22:57:41.198Z,48.16
2023-04-20T23:00:13.816Z,47.46
2023-04-20T23:02:42.935Z,47.42
2023-04-20T23:05:12.273Z,47.77
2023-04-20T23:07:45.270Z,47.76
2023-04-20T23:10:16.192Z,47.79
2023-04-20T23:12:46.926Z,48.18
2023-04-20T23:15:16.089Z,48.48
2023-04-20T23:17:44.760Z,48.01
2023-04-20T23:20:15.139Z,48.51
2023-04-20T23:22:45.188Z,48.37
2023-04-20T23:25:14.248Z,47.67
2023-04-20T23:27:43.028Z,48.03
2023-04-20T23:30:13.136Z,48.18
2023-04-20T23:32:43.877Z,47.81
2023-04-20T23:35:14.129Z,47.97
2023-04-20T23:37:44.120Z,48.48
2023-04-20T23:40:13.562Z,48.83
2023-04-20T23:42:42.198Z,48.29
2023-04-20T23:45:12.630Z,48.36
2023-04-20T23:47:41.422Z,49.46
2023-04-20T23:50:11.086Z,48.83
2023-04-20T23:52:40.646Z,49.56
2023-04-20T23:55:11.805Z,49.45
2023-04-20T23:57:40.617Z,49.21
